createdAt,value
2022-09-16T00:01:00.784Z,12.50
2022-09-16T00:03:27.801Z,12.50
2022-09-16T00:05:54.662Z,12.40
2022-09-16T00:08:22.881Z,12.40
2022-09-16T00:10:49.774Z,12.40
2022-09-16T00:13:17.065Z,12.40
2022-09-16T00:15:44.587Z,12.30
2022-09-16T00:18:12.225Z,12.30
2022-09-16T00:20:46.298Z,12.30
2022-09-16T00:23:13.358Z,12.30
2022-09-16T00:25:40.204Z,12.30
2022-09-16T00:28:07.456Z,12.20
2022-09-16T00:30:34.678Z,12.20
2022-09-16T00:33:01.608Z,12.20
2022-09-16T00:35:28.661Z,12.20
2022-09-16T00:37:55.488Z,12.10
2022-09-16T00:40:23.039Z,12.10
2022-09-16T00:42:49.897Z,12.10
2022-09-16T00:45:17.996Z,12.10
2022-09-16T00:47:56.295Z,12.10
2022-09-16T00:50:31.036Z,12.00
2022-09-16T00:52:59.736Z,12.00
2022-09-16T00:55:28.779Z,12.00
2022-09-16T00:57:57.371Z,12.00
2022-09-16T01:00:24.654Z,12.00
2022-09-16T01:02:51.824Z,11.90
2022-09-16T01:05:20.438Z,11.90
2022-09-16T01:07:51.312Z,11.90
2022-09-16T01:10:19.797Z,11.90
2022-09-16T01:12:49.862Z,11.90
2022-09-16T01:15:18.091Z,11.90
2022-09-16T01:17:50.966Z,11.80
2022-09-16T01:20:36.511Z,11.80
2022-09-16T01:23:22.199Z,11.80
2022-09-16T01:25:55.066Z,11.80
2022-09-16T01:28:32.838Z,11.80
2022-09-16T01:31:02.662Z,11.80
2022-09-16T01:33:29.576Z,11.70
2022-09-16T01:36:15.287Z,11.70
2022-09-16T01:38:42.169Z,11.70
2022-09-16T01:41:15.659Z,11.70
2022-09-16T01:43:54.626Z,11.70
2022-09-16T01:46:35.410Z,11.70
2022-09-16T01:49:02.430Z,11.70
2022-09-16T01:51:38.545Z,11.70
2022-09-16T01:54:10.275Z,11.70
2022-09-16T01:56:46.415Z,11.70
2022-09-16T01:59:19.278Z,11.70
2022-09-16T02:01:50.868Z,11.70
2022-09-16T02:04:25.020Z,11.70
2022-09-16T02:06:53.273Z,11.70
2022-09-16T02:09:22.402Z,11.70
2022-09-16T02:11:55.592Z,11.70
2022-09-16T02:14:24.641Z,11.70
2022-09-16T02:16:56.425Z,11.70
2022-09-16T02:19:28.155Z,11.70
2022-09-16T02:21:56.476Z,11.70
2022-09-16T02:24:24.492Z,11.80
2022-09-16T02:26:56.050Z,11.80
2022-09-16T02:29:27.583Z,11.80
2022-09-16T02:31:57.846Z,11.80
2022-09-16T02:34:37.207Z,11.80
2022-09-16T02:37:39.445Z,11.80
2022-09-16T02:40:12.208Z,11.80
2022-09-16T02:42:39.102Z,11.80
2022-09-16T02:45:07.531Z,11.80
2022-09-16T02:47:53.373Z,11.80
2022-09-16T02:50:35.287Z,11.80
2022-09-16T02:53:04.320Z,11.80
2022-09-16T02:55:38.882Z,11.70
2022-09-16T02:58:06.611Z,11.70
2022-09-16T03:00:37.275Z,11.70
2022-09-16T03:03:04.229Z,11.70
2022-09-16T03:05:31.324Z,11.70
2022-09-16T03:07:58.518Z,11.70
2022-09-16T03:10:27.902Z,11.60
2022-09-16T03:13:08.199Z,11.60
2022-09-16T03:15:53.734Z,11.60
2022-09-16T03:18:25.878Z,11.60
2022-09-16T03:21:11.281Z,11.60
2022-09-16T03:23:47.204Z,11.60
2022-09-16T03:26:32.690Z,11.50
2022-09-16T03:29:12.506Z,11.60
2022-09-16T03:31:43.118Z,11.50
2022-09-16T03:34:14.974Z,11.50
2022-09-16T03:36:45.022Z,11.50
2022-09-16T03:39:13.317Z,11.50
2022-09-16T03:41:40.431Z,11.50
2022-09-16T03:44:07.334Z,11.50
2022-09-16T03:46:34.828Z,11.50
2022-09-16T03:49:01.754Z,11.40
2022-09-16T03:51:28.588Z,11.40
2022-09-16T03:53:55.521Z,11.40
2022-09-16T03:56:23.196Z,11.40
2022-09-16T03:58:50.496Z,11.40
2022-09-16T04:01:17.657Z,11.40
2022-09-16T04:03:44.558Z,11.40
2022-09-16T04:06:11.451Z,11.40
2022-09-16T04:08:39.742Z,11.50
2022-09-16T04:11:06.995Z,11.50
2022-09-16T04:13:34.552Z,11.50
2022-09-16T04:16:02.282Z,11.50
2022-09-16T04:18:30.500Z,11.50
2022-09-16T04:21:00.574Z,11.50
2022-09-16T04:23:28.262Z,11.50
2022-09-16T04:25:59.285Z,11.60
2022-09-16T04:28:26.628Z,11.60
2022-09-16T04:30:53.573Z,11.60
2022-09-16T04:33:20.508Z,11.60
2022-09-16T04:35:47.887Z,11.70
2022-09-16T04:38:14.740Z,11.70
2022-09-16T04:40:41.587Z,11.70
2022-09-16T04:43:09.522Z,11.70
2022-09-16T04:45:36.892Z,11.70
2022-09-16T04:48:03.835Z,11.80
2022-09-16T04:51:32.943Z,11.80
2022-09-16T04:54:00.103Z,11.80
2022-09-16T04:56:28.262Z,11.80
2022-09-16T04:58:57.394Z,11.80
2022-09-16T05:01:28.374Z,11.80
2022-09-16T05:03:57.043Z,11.80
2022-09-16T05:06:24.936Z,11.80
2022-09-16T05:08:52.849Z,11.80
2022-09-16T05:11:20.992Z,11.80
2022-09-16T05:13:48.127Z,11.80
2022-09-16T05:16:16.872Z,11.80
2022-09-16T05:18:44.732Z,11.80
2022-09-16T05:21:18.325Z,11.80
2022-09-16T05:23:46.933Z,11.80
2022-09-16T05:26:15.544Z,11.70
2022-09-16T05:28:43.228Z,11.70
2022-09-16T05:31:11.421Z,11.70
2022-09-16T05:33:42.332Z,11.70
2022-09-16T05:36:18.376Z,11.70
2022-09-16T05:39:04.666Z,11.70
2022-09-16T05:41:33.047Z,11.60
2022-09-16T05:44:00.750Z,11.70
2022-09-16T05:46:28.319Z,11.70
2022-09-16T05:48:59.301Z,11.60
2022-09-16T05:51:26.248Z,11.60
2022-09-16T05:53:53.783Z,11.50
2022-09-16T05:56:25.860Z,11.50
2022-09-16T05:58:53.932Z,11.50
2022-09-16T06:01:22.351Z,11.50
2022-09-16T06:03:50.210Z,11.50
2022-09-16T06:06:22.997Z,11.50
2022-09-16T06:08:50.834Z,11.40
2022-09-16T06:11:17.640Z,11.40
2022-09-16T06:13:44.550Z,11.40
2022-09-16T06:16:11.570Z,11.40
2022-09-16T06:18:38.472Z,11.40
2022-09-16T06:21:09.685Z,11.30
2022-09-16T06:23:37.255Z,11.30
2022-09-16T06:26:14.094Z,11.30
2022-09-16T06:28:41.181Z,11.30
2022-09-16T06:31:13.150Z,11.30
2022-09-16T06:33:40.430Z,11.30
2022-09-16T06:36:12.552Z,11.30
2022-09-16T06:38:39.645Z,11.30
2022-09-16T06:41:07.603Z,11.30
2022-09-16T06:43:35.139Z,11.30
2022-09-16T06:46:08.107Z,11.40
2022-09-16T06:48:35.201Z,11.40
2022-09-16T06:51:02.900Z,11.40
2022-09-16T06:53:30.375Z,11.40
2022-09-16T06:56:04.147Z,11.40
2022-09-16T06:58:35.106Z,11.40
2022-09-16T07:01:09.035Z,11.40
2022-09-16T07:03:41.960Z,11.40
2022-09-16T07:06:09.443Z,11.40
2022-09-16T07:08:36.908Z,11.40
2022-09-16T07:11:16.048Z,11.50
2022-09-16T07:13:43.079Z,11.50
2022-09-16T07:16:14.273Z,11.50
2022-09-16T07:18:41.918Z,11.60
2022-09-16T07:21:12.787Z,11.60
2022-09-16T07:23:40.061Z,11.60
2022-09-16T07:26:08.845Z,11.70
2022-09-16T07:28:36.422Z,11.70
2022-09-16T07:31:06.353Z,11.80
2022-09-16T07:33:36.042Z,11.80
2022-09-16T07:36:05.158Z,11.80
2022-09-16T07:38:32.631Z,11.80
2022-09-16T07:41:16.061Z,11.90
2022-09-16T07:43:43.294Z,11.90
2022-09-16T07:46:11.042Z,11.90
2022-09-16T07:48:38.290Z,12.00
2022-09-16T07:51:06.869Z,12.00
2022-09-16T07:53:34.981Z,12.00
2022-09-16T07:56:06.512Z,12.00
2022-09-16T07:58:33.833Z,12.00
2022-09-16T08:01:04.575Z,12.10
2022-09-16T08:03:33.067Z,12.10
2022-09-16T08:06:01.649Z,12.20
2022-09-16T08:08:28.528Z,12.20
2022-09-16T08:10:55.952Z,12.20
2022-09-16T08:13:22.955Z,12.20
2022-09-16T08:15:49.844Z,12.20
2022-09-16T08:18:17.019Z,12.30
2022-09-16T08:20:43.823Z,12.30
2022-09-16T08:23:11.487Z,12.30
2022-09-16T08:25:38.338Z,12.40
2022-09-16T08:28:05.651Z,12.40
2022-09-16T08:30:32.426Z,12.40
2022-09-16T08:32:59.289Z,12.50
2022-09-16T08:35:26.647Z,12.60
2022-09-16T08:37:53.506Z,12.60
2022-09-16T08:43:12.567Z,12.70
2022-09-16T08:45:48.406Z,12.90
2022-09-16T08:48:18.331Z,13.00
2022-09-16T08:50:47.065Z,13.20
2022-09-16T08:53:17.450Z,13.40
2022-09-16T08:55:46.941Z,13.60
2022-09-16T08:58:18.726Z,14.10
2022-09-16T09:00:47.337Z,14.50
2022-09-16T09:03:21.802Z,15.00
2022-09-16T09:05:51.524Z,15.60
2022-09-16T09:08:21.407Z,16.30
2022-09-16T09:11:05.927Z,17.10
2022-09-16T09:13:45.230Z,17.80
2022-09-16T09:16:18.341Z,18.50
2022-09-16T09:18:52.734Z,19.30
2022-09-16T09:21:27.941Z,19.90
2022-09-16T09:24:13.378Z,20.70
2022-09-16T09:26:50.123Z,21.30
2022-09-16T09:29:26.381Z,21.70
2022-09-16T09:32:05.523Z,21.90
2022-09-16T09:34:47.839Z,22.10
2022-09-16T09:37:14.658Z,22.10
2022-09-16T09:40:07.394Z,22.10
2022-09-16T09:42:46.580Z,22.10
2022-09-16T09:45:16.518Z,22.40
2022-09-16T09:47:47.376Z,22.70
2022-09-16T09:50:32.953Z,22.80
2022-09-16T09:53:05.940Z,22.70
2022-09-16T09:59:00.762Z,22.20
2022-09-16T10:01:27.637Z,21.90
2022-09-16T10:03:56.169Z,21.90
2022-09-16T10:06:30.854Z,21.80
2022-09-16T10:08:58.469Z,21.60
2022-09-16T10:11:27.175Z,21.20
2022-09-16T10:13:58.096Z,20.80
2022-09-16T10:16:26.776Z,20.50
2022-09-16T10:18:59.127Z,20.40
2022-09-16T10:21:26.064Z,20.40
2022-09-16T10:23:57.375Z,20.30
2022-09-16T10:26:28.220Z,20.20
2022-09-16T10:28:58.094Z,20.10
2022-09-16T10:31:29.147Z,20.00
2022-09-16T10:33:59.698Z,20.00
2022-09-16T10:36:34.312Z,20.10
2022-09-16T10:39:04.726Z,20.30
2022-09-16T10:41:41.793Z,20.60
2022-09-16T10:54:28.158Z,21.90
2022-09-16T10:56:56.536Z,22.10
2022-09-16T10:59:23.356Z,22.30
2022-09-16T11:02:05.779Z,22.50
2022-09-16T11:04:36.385Z,22.50
2022-09-16T11:07:21.881Z,22.20
2022-09-16T11:09:48.847Z,22.00
2022-09-16T11:12:24.933Z,21.60
2022-09-16T11:15:04.037Z,21.40
2022-09-16T11:17:51.212Z,21.30
2022-09-16T11:20:27.310Z,21.00
2022-09-16T11:23:08.976Z,20.90
2022-09-16T11:25:36.299Z,20.80
2022-09-16T11:28:03.038Z,20.70
2022-09-16T11:30:33.440Z,20.40
2022-09-16T11:33:20.472Z,20.10
2022-09-16T11:35:59.866Z,19.80
2022-09-16T11:38:41.196Z,19.60
2022-09-16T11:41:15.373Z,19.70
2022-09-16T11:43:56.403Z,19.80
2022-09-16T11:46:39.069Z,19.90
2022-09-16T11:49:15.461Z,19.80
2022-09-16T11:52:01.144Z,19.60
2022-09-16T11:54:46.464Z,19.40
2022-09-16T11:57:16.270Z,19.10
2022-09-16T11:59:59.427Z,19.00
2022-09-16T12:02:30.118Z,19.00
2022-09-16T12:05:02.850Z,19.00
2022-09-16T12:07:34.543Z,18.90
2022-09-16T12:10:20.032Z,18.80
2022-09-16T12:12:52.621Z,18.80
2022-09-16T12:15:23.446Z,18.80
2022-09-16T12:17:56.228Z,18.60
2022-09-16T12:20:38.456Z,18.50
2022-09-16T12:23:23.949Z,18.20
2022-09-16T12:25:59.860Z,18.10
2022-09-16T12:28:31.307Z,17.90
2022-09-16T12:34:44.501Z,17.70
2022-09-16T12:37:23.765Z,17.70
2022-09-16T12:39:50.829Z,17.70
2022-09-16T12:42:20.370Z,17.70
2022-09-16T12:45:06.205Z,17.60
2022-09-16T12:47:51.841Z,17.50
2022-09-16T12:50:28.620Z,17.30
2022-09-16T12:53:06.129Z,17.20
2022-09-16T12:55:51.764Z,17.10
2022-09-16T12:58:18.630Z,17.00
2022-09-16T13:01:04.177Z,17.00
2022-09-16T13:06:17.309Z,17.10
2022-09-16T13:08:44.454Z,17.00
2022-09-16T13:14:25.488Z,16.90
2022-09-16T13:16:54.047Z,16.80
2022-09-16T13:19:36.435Z,16.90
2022-09-16T13:22:22.542Z,17.00
2022-09-16T13:25:18.878Z,17.00
2022-09-16T13:27:54.943Z,16.90
2022-09-16T13:30:30.206Z,16.80
2022-09-16T13:33:01.696Z,16.80
2022-09-16T13:35:31.522Z,16.60
2022-09-16T13:38:00.454Z,16.50
2022-09-16T13:40:28.742Z,16.50
2022-09-16T13:43:07.534Z,16.40
2022-09-16T13:45:35.791Z,16.30
2022-09-16T13:48:06.345Z,16.20
2022-09-16T13:50:34.241Z,16.10
2022-09-16T13:53:08.780Z,16.00
2022-09-16T13:55:37.275Z,16.00
2022-09-16T13:58:27.478Z,16.00
2022-09-16T14:01:04.674Z,16.10
2022-09-16T14:03:33.417Z,16.10
2022-09-16T14:06:53.333Z,16.20
2022-09-16T14:09:20.313Z,16.30
2022-09-16T14:11:58.552Z,16.30
2022-09-16T14:17:19.494Z,16.20
2022-09-16T14:19:48.747Z,16.20
2022-09-16T14:22:21.690Z,16.20
2022-09-16T14:24:56.371Z,16.20
2022-09-16T14:27:37.782Z,16.20
2022-09-16T14:30:06.649Z,16.30
2022-09-16T14:32:35.335Z,16.30
2022-09-16T14:35:04.265Z,16.30
2022-09-16T14:37:31.911Z,16.20
2022-09-16T14:40:03.791Z,16.20
2022-09-16T14:42:31.302Z,16.10
2022-09-16T14:44:58.850Z,16.00
2022-09-16T14:47:50.082Z,15.90
2022-09-16T14:50:26.506Z,15.90
2022-09-16T14:52:58.049Z,15.80
2022-09-16T14:55:26.619Z,15.80
2022-09-16T14:57:53.675Z,15.80
2022-09-16T15:00:20.713Z,15.80
2022-09-16T15:03:01.074Z,15.80
2022-09-16T15:05:30.991Z,15.70
2022-09-16T15:08:13.740Z,15.60
2022-09-16T15:10:52.080Z,15.60
2022-09-16T15:13:23.019Z,15.50
2022-09-16T15:15:52.693Z,15.40
2022-09-16T15:18:24.417Z,15.40
2022-09-16T15:21:01.031Z,15.40
2022-09-16T15:23:28.559Z,15.30
2022-09-16T15:26:05.960Z,15.30
2022-09-16T15:28:32.890Z,15.20
2022-09-16T15:30:59.831Z,15.20
2022-09-16T15:33:29.882Z,15.10
2022-09-16T15:36:00.053Z,15.00
2022-09-16T15:38:26.885Z,15.00
2022-09-16T15:41:10.847Z,14.90
2022-09-16T15:43:39.976Z,14.90
2022-09-16T15:46:14.882Z,14.90
2022-09-16T15:48:46.317Z,14.90
2022-09-16T15:51:33.429Z,14.80
2022-09-16T15:54:07.158Z,14.80
2022-09-16T15:56:40.478Z,14.80
2022-09-16T15:59:28.216Z,14.70
2022-09-16T16:01:57.670Z,14.80
2022-09-16T16:04:34.464Z,14.70
2022-09-16T16:07:05.321Z,14.70
2022-09-16T16:09:33.685Z,14.70
2022-09-16T16:12:02.020Z,14.60
2022-09-16T16:14:32.237Z,14.60
2022-09-16T16:17:16.235Z,14.50
2022-09-16T16:19:43.916Z,14.50
2022-09-16T16:22:11.930Z,14.40
2022-09-16T16:24:39.284Z,14.40
2022-09-16T16:27:08.147Z,14.40
2022-09-16T16:29:35.106Z,14.30
2022-09-16T16:32:02.143Z,14.30
2022-09-16T16:34:31.480Z,14.30
2022-09-16T16:36:58.486Z,14.30
2022-09-16T16:39:25.779Z,14.30
2022-09-16T16:41:55.538Z,14.30
2022-09-16T16:44:23.189Z,14.30
2022-09-16T16:46:54.461Z,14.30
2022-09-16T16:49:21.814Z,14.30
2022-09-16T16:51:50.659Z,14.20
2022-09-16T16:54:20.804Z,14.20
2022-09-16T16:56:48.508Z,14.20
2022-09-16T16:59:17.844Z,14.10
2022-09-16T17:01:48.805Z,14.10
2022-09-16T17:04:16.310Z,14.00
2022-09-16T17:06:43.475Z,14.00
2022-09-16T17:09:15.091Z,13.90
2022-09-16T17:11:53.931Z,13.90
2022-09-16T17:14:21.410Z,13.90
2022-09-16T17:16:48.998Z,13.80
2022-09-16T17:19:17.478Z,13.80
2022-09-16T17:21:45.184Z,13.80
2022-09-16T17:24:12.765Z,13.70
2022-09-16T17:26:39.713Z,13.70
2022-09-16T17:29:14.790Z,13.70
2022-09-16T17:31:43.090Z,13.60
2022-09-16T17:34:11.546Z,13.60
2022-09-16T17:36:45.950Z,13.60
2022-09-16T17:39:15.198Z,13.50
2022-09-16T17:41:43.601Z,13.50
2022-09-16T17:44:11.351Z,13.50
2022-09-16T17:46:38.808Z,13.50
2022-09-16T17:49:07.704Z,13.40
2022-09-16T17:51:34.854Z,13.40
2022-09-16T17:54:03.330Z,13.40
2022-09-16T17:56:30.475Z,13.40
2022-09-16T17:58:57.456Z,13.40
2022-09-16T18:01:25.891Z,13.40
2022-09-16T18:03:53.911Z,13.40
2022-09-16T18:06:30.888Z,13.40
2022-09-16T18:09:01.943Z,13.50
2022-09-16T18:11:28.785Z,13.50
2022-09-16T18:13:56.706Z,13.50
2022-09-16T18:16:24.350Z,13.50
2022-09-16T18:18:52.390Z,13.50
2022-09-16T18:21:19.844Z,13.40
2022-09-16T18:23:49.669Z,13.40
2022-09-16T18:26:19.269Z,13.40
2022-09-16T18:29:08.581Z,13.40
2022-09-16T18:31:34.873Z,13.40
2022-09-16T18:34:01.662Z,13.30
2022-09-16T18:36:30.599Z,13.30
2022-09-16T18:38:58.278Z,13.30
2022-09-16T18:41:29.437Z,13.30
2022-09-16T18:44:00.383Z,13.20
2022-09-16T18:46:29.016Z,13.30
2022-09-16T18:48:56.209Z,13.20
2022-09-16T18:51:25.348Z,13.20
2022-09-16T18:53:56.216Z,13.20
2022-09-16T18:56:25.172Z,13.20
2022-09-16T18:59:17.256Z,13.20
2022-09-16T19:01:40.439Z,13.10
2022-09-16T19:04:08.798Z,13.10
2022-09-16T19:06:37.176Z,13.00
2022-09-16T19:09:06.282Z,13.00
2022-09-16T19:11:33.962Z,12.90
2022-09-16T19:14:01.003Z,12.90
2022-09-16T19:16:28.045Z,12.80
2022-09-16T19:18:55.587Z,12.80
2022-09-16T19:21:23.165Z,12.70
2022-09-16T19:23:54.444Z,12.60
2022-09-16T19:26:21.252Z,12.60
2022-09-16T19:28:48.282Z,12.60
2022-09-16T19:31:15.201Z,12.50
2022-09-16T19:33:42.500Z,12.50
2022-09-16T19:36:10.339Z,12.40
2022-09-16T19:38:37.154Z,12.40
2022-09-16T19:41:06.689Z,12.40
2022-09-16T19:43:33.813Z,12.30
2022-09-16T19:46:05.317Z,12.30
2022-09-16T19:48:34.411Z,12.30
2022-09-16T19:51:01.270Z,12.20
2022-09-16T19:53:28.176Z,12.20
2022-09-16T19:56:02.707Z,12.20
2022-09-16T19:58:31.095Z,12.10
2022-09-16T20:01:02.421Z,12.10
2022-09-16T20:03:30.161Z,12.10
2022-09-16T20:06:10.611Z,12.10
2022-09-16T20:08:38.531Z,12.00
2022-09-16T20:11:10.119Z,12.00
2022-09-16T20:13:38.276Z,12.00
2022-09-16T20:16:06.864Z,12.00
2022-09-16T20:18:34.505Z,12.00
2022-09-16T20:21:05.525Z,12.00
2022-09-16T20:23:33.077Z,12.00
2022-09-16T20:26:00.637Z,11.90
2022-09-16T20:28:38.233Z,11.90
2022-09-16T20:31:05.796Z,11.90
2022-09-16T20:33:33.478Z,11.90
2022-09-16T20:36:07.865Z,11.90
2022-09-16T20:38:34.713Z,11.90
2022-09-16T20:41:08.895Z,11.80
2022-09-16T20:43:35.837Z,11.80
2022-09-16T20:46:03.981Z,11.80
2022-09-16T20:48:30.844Z,11.80
2022-09-16T20:50:57.634Z,11.80
2022-09-16T20:53:24.533Z,11.70
2022-09-16T20:55:51.354Z,11.70
2022-09-16T20:58:18.417Z,11.70
2022-09-16T21:00:45.325Z,11.60
2022-09-16T21:03:14.189Z,11.60
2022-09-16T21:05:41.133Z,11.60
2022-09-16T21:08:07.979Z,11.50
2022-09-16T21:10:38.397Z,11.50
2022-09-16T21:13:06.602Z,11.50
2022-09-16T21:15:33.411Z,11.50
2022-09-16T21:18:00.926Z,11.50
2022-09-16T21:20:27.839Z,11.40
2022-09-16T21:22:54.704Z,11.40
2022-09-16T21:25:24.842Z,11.40
2022-09-16T21:27:51.691Z,11.40
2022-09-16T21:30:19.128Z,11.30
2022-09-16T21:32:46.082Z,11.30
2022-09-16T21:35:12.982Z,11.30
2022-09-16T21:37:39.846Z,11.30
2022-09-16T21:40:10.373Z,11.30
2022-09-16T21:42:37.567Z,11.30
2022-09-16T21:45:04.735Z,11.30
2022-09-16T21:47:32.399Z,11.30
2022-09-16T21:50:00.886Z,11.30
2022-09-16T21:52:27.722Z,11.20
2022-09-16T21:54:54.648Z,11.20
2022-09-16T21:57:23.951Z,11.20
2022-09-16T21:59:51.051Z,11.20
2022-09-16T22:02:17.969Z,11.10
2022-09-16T22:04:44.765Z,11.10
2022-09-16T22:07:11.638Z,11.10
2022-09-16T22:09:38.634Z,11.10
2022-09-16T22:12:07.037Z,11.10
2022-09-16T22:14:33.869Z,11.10
2022-09-16T22:17:00.745Z,11.10
2022-09-16T22:19:27.598Z,11.00
2022-09-16T22:21:54.559Z,11.10
2022-09-16T22:24:21.613Z,11.10
2022-09-16T22:26:49.760Z,11.10
2022-09-16T22:29:16.545Z,11.10
2022-09-16T22:31:43.639Z,11.10
2022-09-16T22:34:10.689Z,11.10
2022-09-16T22:36:38.261Z,11.00
2022-09-16T22:39:07.618Z,11.00
2022-09-16T22:41:34.700Z,11.00
2022-09-16T22:44:21.915Z,11.00
2022-09-16T22:46:48.901Z,11.00
2022-09-16T22:49:15.833Z,11.00
2022-09-16T22:51:42.689Z,11.00
2022-09-16T22:54:11.024Z,10.90
2022-09-16T22:56:37.889Z,10.90
2022-09-16T22:59:05.536Z,10.90
2022-09-16T23:01:34.944Z,10.90
2022-09-16T23:04:03.064Z,10.80
2022-09-16T23:06:32.199Z,10.90
2022-09-16T23:08:59.467Z,10.80
2022-09-16T23:11:29.506Z,10.80
2022-09-16T23:13:56.922Z,10.80
2022-09-16T23:16:27.069Z,10.80
2022-09-16T23:18:55.728Z,10.80
2022-09-16T23:21:23.110Z,10.80
2022-09-16T23:23:51.594Z,10.70
2022-09-16T23:26:29.970Z,10.80
2022-09-16T23:28:57.816Z,10.80
2022-09-16T23:31:26.180Z,10.70
2022-09-16T23:33:53.564Z,10.70
2022-09-16T23:36:20.621Z,10.70
2022-09-16T23:38:48.787Z,10.70
2022-09-16T23:41:23.218Z,10.70
2022-09-16T23:43:50.462Z,10.70
2022-09-16T23:46:18.276Z,10.70
2022-09-16T23:48:45.413Z,10.70
2022-09-16T23:51:13.078Z,10.60
2022-09-16T23:53:42.314Z,10.60
2022-09-16T23:56:11.277Z,10.60
2022-09-16T23:58:38.207Z,10.60
